Map

Track Data

SID SEASON NUMBER BASIN SUBBASIN NAME ISO_TIME NATURE LAT LON WMO_WIND WMO_PRES WMO_AGENCY TRACK_TYPE DIST2LAND LANDFALL IFLAG USA_AGENCY USA_ATCF_ID USA_LAT USA_LON USA_RECORD USA_STATUS USA_WIND USA_PRES USA_SSHS USA_R34_NE USA_R34_SE USA_R34_SW USA_R34_NW USA_R50_NE USA_R50_SE USA_R50_SW USA_R50_NW USA_R64_NE USA_R64_SE USA_R64_SW USA_R64_NW USA_POCI USA_ROCI USA_RMW USA_EYE TOKYO_LAT TOKYO_LON TOKYO_GRADE TOKYO_WIND TOKYO_PRES TOKYO_R50_DIR TOKYO_R50_LONG TOKYO_R50_SHORT TOKYO_R30_DIR TOKYO_R30_LONG TOKYO_R30_SHORT TOKYO_LAND CMA_LAT CMA_LON CMA_CAT CMA_WIND CMA_PRES HKO_LAT HKO_LON HKO_CAT HKO_WIND HKO_PRES NEWDELHI_LAT NEWDELHI_LON NEWDELHI_GRADE NEWDELHI_WIND NEWDELHI_PRES NEWDELHI_CI NEWDELHI_DP NEWDELHI_POCI REUNION_LAT REUNION_LON REUNION_TYPE REUNION_WIND REUNION_PRES REUNION_TNUM REUNION_CI REUNION_RMW REUNION_R34_NE REUNION_R34_SE REUNION_R34_SW REUNION_R34_NW REUNION_R50_NE REUNION_R50_SE REUNION_R50_SW REUNION_R50_NW REUNION_R64_NE REUNION_R64_SE REUNION_R64_SW REUNION_R64_NW BOM_LAT BOM_LON BOM_TYPE BOM_WIND BOM_PRES BOM_TNUM BOM_CI BOM_RMW BOM_R34_NE BOM_R34_SE BOM_R34_SW BOM_R34_NW BOM_R50_NE BOM_R50_SE BOM_R50_SW BOM_R50_NW BOM_R64_NE BOM_R64_SE BOM_R64_SW BOM_R64_NW BOM_ROCI BOM_POCI BOM_EYE BOM_POS_METHOD BOM_PRES_METHOD NADI_LAT NADI_LON NADI_CAT NADI_WIND NADI_PRES WELLINGTON_LAT WELLINGTON_LON WELLINGTON_WIND WELLINGTON_PRES DS824_LAT DS824_LON DS824_STAGE DS824_WIND DS824_PRES TD9636_LAT TD9636_LON TD9636_STAGE TD9636_WIND TD9636_PRES TD9635_LAT TD9635_LON TD9635_WIND TD9635_PRES TD9635_ROCI NEUMANN_LAT NEUMANN_LON NEUMANN_CLASS NEUMANN_WIND NEUMANN_PRES MLC_LAT MLC_LON MLC_CLASS MLC_WIND MLC_PRES USA_GUST BOM_GUST BOM_GUST_PER REUNION_GUST REUNION_GUST_PER USA_SEAHGT USA_SEARAD_NE USA_SEARAD_SE USA_SEARAD_SW USA_SEARAD_NW STORM_SPEED STORM_DIR
1999201N25134 1999 46 WP MM NOT_NAMED 1999-07-19 12:00:00 NR 24.6000 134.000 main 784 743 O_____________ jtwc_wp WP081999 24.6000 134.000 20 -1 8 0
1999201N25134 1999 46 WP MM NOT_NAMED 1999-07-19 15:00:00 NR 25.0150 134.025 main 743 703 P_____________ WP081999 25.0150 134.025 20 -1 8 1
1999201N25134 1999 46 WP MM NOT_NAMED 1999-07-19 18:00:00 NR 25.4000 134.000 main 703 669 O_____________ jtwc_wp WP081999 25.4000 134.000 20 -1 7 350
1999201N25134 1999 46 WP MM NOT_NAMED 1999-07-19 21:00:00 NR 25.7425 133.887 main 669 620 P_____________ WP081999 25.7425 133.887 20 -1 8 339
1999201N25134 1999 46 WP MM NOT_NAMED 1999-07-20 00:00:00 NR 26.1000 133.700 main 620 571 O_____________ jtwc_wp WP081999 26.1000 133.700 20 -1 9 336
1999201N25134 1999 46 WP MM NOT_NAMED 1999-07-20 03:00:00 NR 26.5499 133.487 main 571 508 P_____________ WP081999 26.5499 133.487 20 -1 10 334
1999201N25134 1999 46 WP MM NOT_NAMED 1999-07-20 06:00:00 NR 27.0000 133.200 main 508 454 O_____________ jtwc_wp WP081999 27.0000 133.200 20 -1 10 325
1999201N25134 1999 46 WP MM NOT_NAMED 1999-07-20 09:00:00 NR 27.3725 132.830 main 450 403 P_____________ WP081999 27.3725 132.830 20 -1 10 315
1999201N25134 1999 46 WP MM NOT_NAMED 1999-07-20 12:00:00 NR 27.7000 132.400 main 403 357 O_____________ jtwc_wp WP081999 27.7000 132.400 20 -1 10 310
1999201N25134 1999 46 WP MM NOT_NAMED 1999-07-20 15:00:00 NR 28.0148 131.965 main 357 311 P_____________ WP081999 28.0148 131.965 20 -1 10 307
1999201N25134 1999 46 WP MM NOT_NAMED 1999-07-20 18:00:00 NR 28.3000 131.500 main 311 280 O_____________ jtwc_wp WP081999 28.3000 131.500 20 -1 10 303
1999201N25134 1999 46 WP MM NOT_NAMED 1999-07-20 21:00:00 NR 28.5573 131.015 main 269 246 P_____________ WP081999 28.5573 131.015 20 -1 11 296
1999201N25134 1999 46 WP MM NOT_NAMED 1999-07-21 00:00:00 NR 28.7800 130.400 main 247 233 O__O__________ jtwc_wp WP081999 28.8000 130.500 20 -1 28.7000 130.000 TD 30 998 11 295
1999201N25134 1999 46 WP MM NOT_NAMED 1999-07-21 03:00:00 NR 29.0276 129.860 main 236 221 P__P__________ WP081999 29.0425 129.942 22 -1 28.9977 129.695 TD 30 998 10 301
1999201N25134 1999 46 WP MM NOT_NAMED 1999-07-21 06:00:00 NR 29.3000 129.400 main 225 207 O__O__________ jtwc_wp WP081999 29.3000 129.400 25 -1 29.3000 129.400 TD 30 998 9 308
1999201N25134 1999 46 WP MM NOT_NAMED 1999-07-21 09:00:00 NR 29.5985 129.021 main 212 202 P__P__________ WP081999 29.5773 128.927 25 -1 29.6198 129.114 TD 30 998 9 315
1999201N25134 1999 46 WP MM NOT_NAMED 1999-07-21 12:00:00 NR 29.9500 128.650 main 196 203 O__O__________ jtwc_wp WP081999 29.9000 128.500 25 -1 30.0000 128.800 TD 30 998 10 317
1999201N25134 1999 46 WP MM NOT_NAMED 1999-07-21 15:00:00 NR 30.3364 128.224 main 215 210 P__P__________ WP081999 30.2176 128.047 27 -1 30.4551 128.400 TD 30 998 11 323
1999201N25134 1999 46 WP MM NOT_NAMED 1999-07-21 18:00:00 NR 30.8500 127.850 main 221 211 O__O__________ jtwc_wp WP081999 30.7000 127.700 30 -1 31.0000 128.000 TD 30 998 13 337
1999201N25134 1999 46 WP MM NOT_NAMED 1999-07-21 21:00:00 NR 31.5698 127.623 main 201 129 P__P__________ WP081999 31.5122 127.591 30 -1 31.6275 127.655 TD 30 998 15 347
1999201N25134 1999 46 WP MM NOT_NAMED 1999-07-22 00:00:00 NR 32.3571 127.457 main 119 50 O__O__________ jtwc_wp WP081999 32.4000 127.500 30 -1 32.3000 127.400 TD 30 998 15 345
1999201N25134 1999 46 WP MM NOT_NAMED 1999-07-22 03:00:00 NR 33.0394 127.174 main 50 0 P__P__________ WP081999 33.0804 127.129 30 -1 32.9575 127.265 TD 30 998 14 340
1999201N25134 1999 46 WP MM NOT_NAMED 1999-07-22 06:00:00 NR 33.6800 126.880 main 22 9 O__O__________ jtwc_wp WP081999 33.7000 126.800 30 -1 33.6000 127.200 TD 30 998 14 341
1999201N25134 1999 46 WP MM NOT_NAMED 1999-07-22 09:00:00 NR 34.3107 126.636 main 9 0 P_____________ WP081999 34.3107 126.636 25 -1 TD 13 0
1999201N25134 1999 46 WP MM NOT_NAMED 1999-07-22 12:00:00 NR 35.0000 126.900 main 0 0 O_____________ jtwc_wp WP081999 35.0000 126.900 20 -1 18 31
1999201N25134 1999 46 WP MM NOT_NAMED 1999-07-22 15:00:00 NR 35.8770 127.766 main 0 0 P_____________ WP081999 35.8770 127.766 20 -1 25 45
1999201N25134 1999 46 WP MM NOT_NAMED 1999-07-22 18:00:00 NR 36.8000 129.100 main 0 0 O_____________ jtwc_wp WP081999 36.8000 129.100 20 -1 29 54
1999201N25134 1999 46 WP MM NOT_NAMED 1999-07-22 21:00:00 NR 37.6105 130.692 main 127 127 P_____________ WP081999 37.6105 130.692 25 -1 30 58
1999201N25134 1999 46 WP MM NOT_NAMED 1999-07-23 00:00:00 NR 38.4000 132.300 main 288 288 O_____________ jtwc_wp WP081999 38.4000 132.300 30 -1 27 55
1999201N25134 1999 46 WP MM NOT_NAMED 1999-07-23 03:00:00 NR 39.1706 133.490 main 350 318 P_____________ WP081999 39.1706 133.490 30 -1 25 46
1999201N25134 1999 46 WP MM NOT_NAMED 1999-07-23 06:00:00 NR 40.1000 134.600 main 309 242 O_____________ jtwc_wp WP081999 40.1000 134.600 30 -1 30 41
1999201N25134 1999 46 WP MM NOT_NAMED 1999-07-23 09:00:00 NR 41.4020 136.029 main 239 196 P_____________ WP081999 41.4020 136.029 30 -1 33 39
1999201N25134 1999 46 WP MM NOT_NAMED 1999-07-23 12:00:00 NR 42.7000 137.400 main 195 156 O_____________ jtwc_wp WP081999 42.7000 137.400 30 -1 29 38
1999201N25134 1999 46 WP MM NOT_NAMED 1999-07-23 15:00:00 NR 43.6611 138.417 main 159 143 P_____________ WP081999 43.6611 138.417 30 -1 21 37
1999201N25134 1999 46 WP MM NOT_NAMED 1999-07-23 18:00:00 NR 44.4000 139.200 main 150 O_____________ jtwc_wp WP081999 44.4000 139.200 30 -1 19 37

Digital Typhoon Data and Search

About IBTrACS Database

This database is a web-friendly format of International Best Track Archive for Climate Stewardship (IBTrACS), a global best track data archive curated by NOAA dating back to 1842.

Updated: 2021-12-03